sensor_id;sensor_type;location;lat;lon;timestamp;temperature;humidity
65854;DHT22;52627;48.838;2.402;2022-09-27T00:01:05;13.19;72.70
65854;DHT22;52627;48.838;2.402;2022-09-27T00:03:35;13.17;72.70
65854;DHT22;52627;48.838;2.402;2022-09-27T00:06:04;13.17;72.70
65854;DHT22;52627;48.838;2.402;2022-09-27T00:08:39;13.15;72.66
65854;DHT22;52627;48.838;2.402;2022-09-27T00:11:14;13.14;72.60
65854;DHT22;52627;48.838;2.402;2022-09-27T00:14:00;13.14;72.50
65854;DHT22;52627;48.838;2.402;2022-09-27T00:16:31;13.13;72.50
65854;DHT22;52627;48.838;2.402;2022-09-27T00:19:03;13.12;72.47
65854;DHT22;52627;48.838;2.402;2022-09-27T00:21:34;13.11;72.40
65854;DHT22;52627;48.838;2.402;2022-09-27T00:24:01;13.10;72.40
65854;DHT22;52627;48.838;2.402;2022-09-27T00:26:29;13.08;72.37
65854;DHT22;52627;48.838;2.402;2022-09-27T00:28:57;13.08;72.31
65854;DHT22;52627;48.838;2.402;2022-09-27T00:31:26;13.05;72.31
65854;DHT22;52627;48.838;2.402;2022-09-27T00:34:00;13.02;72.30
65854;DHT22;52627;48.838;2.402;2022-09-27T00:36:29;13.02;72.34
65854;DHT22;52627;48.838;2.402;2022-09-27T00:38:58;13.01;72.36
65854;DHT22;52627;48.838;2.402;2022-09-27T00:41:27;13.01;72.38
65854;DHT22;52627;48.838;2.402;2022-09-27T00:43:59;13.00;72.40
65854;DHT22;52627;48.838;2.402;2022-09-27T00:46:38;13.01;72.44
65854;DHT22;52627;48.838;2.402;2022-09-27T00:49:16;13.02;72.51
65854;DHT22;52627;48.838;2.402;2022-09-27T00:51:57;13.03;72.61
65854;DHT22;52627;48.838;2.402;2022-09-27T00:54:30;13.04;72.70
65854;DHT22;52627;48.838;2.402;2022-09-27T00:56:59;13.04;72.80
65854;DHT22;52627;48.838;2.402;2022-09-27T00:59:29;13.05;72.86
65854;DHT22;52627;48.838;2.402;2022-09-27T01:02:03;13.02;72.90
65854;DHT22;52627;48.838;2.402;2022-09-27T01:04:32;13.03;72.91
65854;DHT22;52627;48.838;2.402;2022-09-27T01:07:01;13.01;73.00
65854;DHT22;52627;48.838;2.402;2022-09-27T01:09:29;13.01;73.01
65854;DHT22;52627;48.838;2.402;2022-09-27T01:12:00;12.99;73.10
65854;DHT22;52627;48.838;2.402;2022-09-27T01:26:53;12.96;73.50
65854;DHT22;52627;48.838;2.402;2022-09-27T01:29:57;12.96;73.52
65854;DHT22;52627;48.838;2.402;2022-09-27T01:38:54;12.92;73.59
65854;DHT22;52627;48.838;2.402;2022-09-27T01:41:42;12.89;73.60
65854;DHT22;52627;48.838;2.402;2022-09-27T01:44:54;12.89;73.60
65854;DHT22;52627;48.838;2.402;2022-09-27T01:47:18;12.89;73.61
65854;DHT22;52627;48.838;2.402;2022-09-27T01:50:02;12.88;73.65
65854;DHT22;52627;48.838;2.402;2022-09-27T01:52:52;12.86;73.67
65854;DHT22;52627;48.838;2.402;2022-09-27T01:55:25;12.85;73.70
65854;DHT22;52627;48.838;2.402;2022-09-27T01:58:00;12.85;73.70
65854;DHT22;52627;48.838;2.402;2022-09-27T02:00:53;12.82;73.73
65854;DHT22;52627;48.838;2.402;2022-09-27T02:03:25;12.81;73.73
65854;DHT22;52627;48.838;2.402;2022-09-27T02:06:00;12.81;73.79
65854;DHT22;52627;48.838;2.402;2022-09-27T02:08:41;12.81;73.80
65854;DHT22;52627;48.838;2.402;2022-09-27T02:11:13;12.80;73.80
65854;DHT22;52627;48.838;2.402;2022-09-27T02:16:28;12.77;73.80
65854;DHT22;52627;48.838;2.402;2022-09-27T02:19:11;12.76;73.80
65854;DHT22;52627;48.838;2.402;2022-09-27T02:27:21;12.74;73.82
65854;DHT22;52627;48.838;2.402;2022-09-27T02:29:54;12.72;73.86
65854;DHT22;52627;48.838;2.402;2022-09-27T02:32:29;12.71;73.90
65854;DHT22;52627;48.838;2.402;2022-09-27T02:34:58;12.70;73.90
65854;DHT22;52627;48.838;2.402;2022-09-27T02:37:32;12.69;73.90
65854;DHT22;52627;48.838;2.402;2022-09-27T02:40:00;12.68;73.90
65854;DHT22;52627;48.838;2.402;2022-09-27T02:42:27;12.67;73.90
65854;DHT22;52627;48.838;2.402;2022-09-27T02:44:55;12.67;73.90
65854;DHT22;52627;48.838;2.402;2022-09-27T02:56:20;12.65;73.99
65854;DHT22;52627;48.838;2.402;2022-09-27T03:05:04;12.61;74.13
65854;DHT22;52627;48.838;2.402;2022-09-27T03:07:37;12.61;74.19
65854;DHT22;52627;48.838;2.402;2022-09-27T03:10:06;12.60;74.22
65854;DHT22;52627;48.838;2.402;2022-09-27T03:12:33;12.60;74.30
65854;DHT22;52627;48.838;2.402;2022-09-27T03:15:01;12.59;74.36
65854;DHT22;52627;48.838;2.402;2022-09-27T03:17:28;12.59;74.41
65854;DHT22;52627;48.838;2.402;2022-09-27T03:19:56;12.59;74.51
65854;DHT22;52627;48.838;2.402;2022-09-27T03:22:23;12.59;74.60
65854;DHT22;52627;48.838;2.402;2022-09-27T03:24:52;12.61;74.62
65854;DHT22;52627;48.838;2.402;2022-09-27T03:27:19;12.62;74.71
65854;DHT22;52627;48.838;2.402;2022-09-27T03:29:46;12.66;74.93
65854;DHT22;52627;48.838;2.402;2022-09-27T03:32:14;12.68;75.17
65854;DHT22;52627;48.838;2.402;2022-09-27T03:34:41;12.69;75.37
65854;DHT22;52627;48.838;2.402;2022-09-27T03:37:09;12.69;75.67
65854;DHT22;52627;48.838;2.402;2022-09-27T03:39:36;12.67;75.95
65854;DHT22;52627;48.838;2.402;2022-09-27T03:42:04;12.66;76.16
65854;DHT22;52627;48.838;2.402;2022-09-27T03:44:34;12.63;76.35
65854;DHT22;52627;48.838;2.402;2022-09-27T03:47:02;12.60;76.55
65854;DHT22;52627;48.838;2.402;2022-09-27T03:49:29;12.57;76.65
65854;DHT22;52627;48.838;2.402;2022-09-27T03:51:58;12.55;76.81
65854;DHT22;52627;48.838;2.402;2022-09-27T03:54:25;12.54;76.95
65854;DHT22;52627;48.838;2.402;2022-09-27T03:56:53;12.54;77.05
65854;DHT22;52627;48.838;2.402;2022-09-27T03:59:20;12.52;77.10
65854;DHT22;52627;48.838;2.402;2022-09-27T04:01:47;12.52;77.22
65854;DHT22;52627;48.838;2.402;2022-09-27T04:04:15;12.51;77.34
65854;DHT22;52627;48.838;2.402;2022-09-27T04:06:42;12.49;77.41
65854;DHT22;52627;48.838;2.402;2022-09-27T04:09:10;12.48;77.46
65854;DHT22;52627;48.838;2.402;2022-09-27T04:11:37;12.46;77.53
65854;DHT22;52627;48.838;2.402;2022-09-27T04:14:04;12.44;77.63
65854;DHT22;52627;48.838;2.402;2022-09-27T04:16:32;12.42;77.69
65854;DHT22;52627;48.838;2.402;2022-09-27T04:18:59;12.40;77.78
65854;DHT22;52627;48.838;2.402;2022-09-27T04:21:29;12.37;77.79
65854;DHT22;52627;48.838;2.402;2022-09-27T04:23:57;12.36;77.88
65854;DHT22;52627;48.838;2.402;2022-09-27T04:26:24;12.34;77.97
65854;DHT22;52627;48.838;2.402;2022-09-27T04:28:52;12.31;78.02
65854;DHT22;52627;48.838;2.402;2022-09-27T04:31:21;12.30;78.04
65854;DHT22;52627;48.838;2.402;2022-09-27T04:33:49;12.29;78.10
65854;DHT22;52627;48.838;2.402;2022-09-27T04:36:17;12.29;78.15
65854;DHT22;52627;48.838;2.402;2022-09-27T04:38:57;12.28;78.20
65854;DHT22;52627;48.838;2.402;2022-09-27T04:41:28;12.29;78.20
65854;DHT22;52627;48.838;2.402;2022-09-27T04:43:56;12.29;78.22
65854;DHT22;52627;48.838;2.402;2022-09-27T04:46:27;12.29;78.31
65854;DHT22;52627;48.838;2.402;2022-09-27T04:48:58;12.28;78.35
65854;DHT22;52627;48.838;2.402;2022-09-27T04:51:27;12.29;78.33
65854;DHT22;52627;48.838;2.402;2022-09-27T04:53:55;12.29;78.39
65854;DHT22;52627;48.838;2.402;2022-09-27T04:56:23;12.31;78.40
65854;DHT22;52627;48.838;2.402;2022-09-27T04:58:51;12.31;78.40
65854;DHT22;52627;48.838;2.402;2022-09-27T05:01:19;12.32;78.40
65854;DHT22;52627;48.838;2.402;2022-09-27T05:03:47;12.34;78.49
65854;DHT22;52627;48.838;2.402;2022-09-27T05:06:14;12.36;78.50
65854;DHT22;52627;48.838;2.402;2022-09-27T05:08:42;12.36;78.50
65854;DHT22;52627;48.838;2.402;2022-09-27T05:11:09;12.37;78.58
65854;DHT22;52627;48.838;2.402;2022-09-27T05:13:37;12.37;78.60
65854;DHT22;52627;48.838;2.402;2022-09-27T05:16:04;12.37;78.60
65854;DHT22;52627;48.838;2.402;2022-09-27T05:18:32;12.37;78.71
65854;DHT22;52627;48.838;2.402;2022-09-27T05:21:00;12.38;78.85
65854;DHT22;52627;48.838;2.402;2022-09-27T05:23:27;12.36;79.24
65854;DHT22;52627;48.838;2.402;2022-09-27T05:25:55;12.33;79.45
65854;DHT22;52627;48.838;2.402;2022-09-27T05:28:23;12.30;79.60
65854;DHT22;52627;48.838;2.402;2022-09-27T05:30:50;12.29;79.70
65854;DHT22;52627;48.838;2.402;2022-09-27T05:33:18;12.27;79.83
65854;DHT22;52627;48.838;2.402;2022-09-27T05:35:52;12.27;79.90
65854;DHT22;52627;48.838;2.402;2022-09-27T05:38:23;12.27;79.98
65854;DHT22;52627;48.838;2.402;2022-09-27T05:40:51;12.26;79.99
65854;DHT22;52627;48.838;2.402;2022-09-27T05:43:19;12.26;79.99
65854;DHT22;52627;48.838;2.402;2022-09-27T05:45:47;12.26;80.00
65854;DHT22;52627;48.838;2.402;2022-09-27T05:48:14;12.26;80.02
65854;DHT22;52627;48.838;2.402;2022-09-27T05:50:42;12.24;80.04
65854;DHT22;52627;48.838;2.402;2022-09-27T05:53:09;12.24;80.10
65854;DHT22;52627;48.838;2.402;2022-09-27T05:55:39;12.25;80.11
65854;DHT22;52627;48.838;2.402;2022-09-27T05:58:07;12.27;80.17
65854;DHT22;52627;48.838;2.402;2022-09-27T06:00:37;12.28;80.10
65854;DHT22;52627;48.838;2.402;2022-09-27T06:03:04;12.31;80.19
65854;DHT22;52627;48.838;2.402;2022-09-27T06:05:34;12.34;80.20
65854;DHT22;52627;48.838;2.402;2022-09-27T06:08:05;12.39;80.20
65854;DHT22;52627;48.838;2.402;2022-09-27T06:10:35;12.41;80.21
65854;DHT22;52627;48.838;2.402;2022-09-27T06:13:05;12.43;80.23
65854;DHT22;52627;48.838;2.402;2022-09-27T06:15:38;12.45;80.19
65854;DHT22;52627;48.838;2.402;2022-09-27T06:18:08;12.48;80.27
65854;DHT22;52627;48.838;2.402;2022-09-27T06:20:38;12.52;80.20
65854;DHT22;52627;48.838;2.402;2022-09-27T06:23:09;12.56;80.16
65854;DHT22;52627;48.838;2.402;2022-09-27T06:25:39;12.58;80.11
65854;DHT22;52627;48.838;2.402;2022-09-27T06:28:07;12.63;80.10
65854;DHT22;52627;48.838;2.402;2022-09-27T06:30:39;12.64;80.02
65854;DHT22;52627;48.838;2.402;2022-09-27T06:33:12;12.67;80.00
65854;DHT22;52627;48.838;2.402;2022-09-27T06:35:42;12.70;79.98
65854;DHT22;52627;48.838;2.402;2022-09-27T06:38:12;12.76;79.91
65854;DHT22;52627;48.838;2.402;2022-09-27T06:40:42;12.80;79.86
65854;DHT22;52627;48.838;2.402;2022-09-27T06:43:15;12.81;79.79
65854;DHT22;52627;48.838;2.402;2022-09-27T06:45:43;12.81;79.73
65854;DHT22;52627;48.838;2.402;2022-09-27T06:48:13;12.84;79.72
65854;DHT22;52627;48.838;2.402;2022-09-27T06:50:43;12.83;79.65
65854;DHT22;52627;48.838;2.402;2022-09-27T06:53:15;12.84;79.57
65854;DHT22;52627;48.838;2.402;2022-09-27T06:55:43;12.83;79.53
65854;DHT22;52627;48.838;2.402;2022-09-27T06:58:10;12.85;79.56
65854;DHT22;52627;48.838;2.402;2022-09-27T07:00:56;12.88;79.53
65854;DHT22;52627;48.838;2.402;2022-09-27T07:03:24;12.92;79.44
65854;DHT22;52627;48.838;2.402;2022-09-27T07:06:03;12.95;79.32
65854;DHT22;52627;48.838;2.402;2022-09-27T07:08:32;12.96;79.30
65854;DHT22;52627;48.838;2.402;2022-09-27T07:11:03;12.99;79.22
65854;DHT22;52627;48.838;2.402;2022-09-27T07:13:33;13.01;79.17
65854;DHT22;52627;48.838;2.402;2022-09-27T07:16:03;13.03;79.11
65854;DHT22;52627;48.838;2.402;2022-09-27T07:18:30;13.06;79.06
65854;DHT22;52627;48.838;2.402;2022-09-27T07:20:58;13.10;78.93
65854;DHT22;52627;48.838;2.402;2022-09-27T07:23:27;13.15;78.82
65854;DHT22;52627;48.838;2.402;2022-09-27T07:25:55;13.19;78.74
65854;DHT22;52627;48.838;2.402;2022-09-27T07:28:22;13.22;78.68
65854;DHT22;52627;48.838;2.402;2022-09-27T07:30:53;13.27;78.67
65854;DHT22;52627;48.838;2.402;2022-09-27T07:33:22;13.32;78.65
65854;DHT22;52627;48.838;2.402;2022-09-27T07:35:50;13.36;78.50
65854;DHT22;52627;48.838;2.402;2022-09-27T07:38:17;13.39;78.37
65854;DHT22;52627;48.838;2.402;2022-09-27T07:40:46;13.43;78.30
65854;DHT22;52627;48.838;2.402;2022-09-27T07:43:14;13.48;78.14
65854;DHT22;52627;48.838;2.402;2022-09-27T07:45:41;13.52;78.06
65854;DHT22;52627;48.838;2.402;2022-09-27T07:48:10;13.58;77.97
65854;DHT22;52627;48.838;2.402;2022-09-27T07:50:40;13.65;77.81
65854;DHT22;52627;48.838;2.402;2022-09-27T07:53:08;13.70;77.67
65854;DHT22;52627;48.838;2.402;2022-09-27T07:55:39;13.78;77.55
65854;DHT22;52627;48.838;2.402;2022-09-27T07:58:07;13.85;77.42
65854;DHT22;52627;48.838;2.402;2022-09-27T08:00:37;13.94;77.29
65854;DHT22;52627;48.838;2.402;2022-09-27T08:03:07;14.07;77.20
65854;DHT22;52627;48.838;2.402;2022-09-27T08:05:40;14.20;77.07
65854;DHT22;52627;48.838;2.402;2022-09-27T08:08:10;14.31;76.86
65854;DHT22;52627;48.838;2.402;2022-09-27T08:10:37;14.43;76.72
65854;DHT22;52627;48.838;2.402;2022-09-27T08:13:13;14.54;76.57
65854;DHT22;52627;48.838;2.402;2022-09-27T08:15:46;14.59;76.38
65854;DHT22;52627;48.838;2.402;2022-09-27T08:18:14;14.64;76.35
65854;DHT22;52627;48.838;2.402;2022-09-27T08:20:43;14.66;76.07
65854;DHT22;52627;48.838;2.402;2022-09-27T08:23:11;14.65;75.84
65854;DHT22;52627;48.838;2.402;2022-09-27T08:25:38;14.65;75.68
65854;DHT22;52627;48.838;2.402;2022-09-27T08:28:06;14.64;75.56
65854;DHT22;52627;48.838;2.402;2022-09-27T08:30:33;14.66;75.41
65854;DHT22;52627;48.838;2.402;2022-09-27T08:33:01;14.70;75.24
65854;DHT22;52627;48.838;2.402;2022-09-27T08:35:30;14.73;75.08
65854;DHT22;52627;48.838;2.402;2022-09-27T08:38:00;14.78;74.92
65854;DHT22;52627;48.838;2.402;2022-09-27T08:43:47;14.91;74.39
65854;DHT22;52627;48.838;2.402;2022-09-27T08:46:34;14.92;74.14
65854;DHT22;52627;48.838;2.402;2022-09-27T08:49:28;14.92;74.03
65854;DHT22;52627;48.838;2.402;2022-09-27T08:52:04;14.90;73.72
65854;DHT22;52627;48.838;2.402;2022-09-27T08:54:42;14.91;73.55
65854;DHT22;52627;48.838;2.402;2022-09-27T08:57:11;14.90;73.39
65854;DHT22;52627;48.838;2.402;2022-09-27T08:59:41;14.88;73.20
65854;DHT22;52627;48.838;2.402;2022-09-27T09:02:17;14.87;73.10
65854;DHT22;52627;48.838;2.402;2022-09-27T09:04:48;14.88;73.03
65854;DHT22;52627;48.838;2.402;2022-09-27T09:07:28;14.88;73.02
65854;DHT22;52627;48.838;2.402;2022-09-27T09:13:40;14.95;73.10
65854;DHT22;52627;48.838;2.402;2022-09-27T09:28:10;15.04;72.61
65854;DHT22;52627;48.838;2.402;2022-09-27T09:33:56;15.12;72.37
65854;DHT22;52627;48.838;2.402;2022-09-27T09:36:58;15.16;72.30
65854;DHT22;52627;48.838;2.402;2022-09-27T09:39:55;15.33;72.10
65854;DHT22;52627;48.838;2.402;2022-09-27T09:42:39;15.49;71.89
65854;DHT22;52627;48.838;2.402;2022-09-27T09:45:37;15.73;71.78
65854;DHT22;52627;48.838;2.402;2022-09-27T09:48:10;15.94;71.52
65854;DHT22;52627;48.838;2.402;2022-09-27T09:50:51;16.14;71.22
65854;DHT22;52627;48.838;2.402;2022-09-27T09:53:27;16.54;70.62
65854;DHT22;52627;48.838;2.402;2022-09-27T09:56:06;17.27;70.26
65854;DHT22;52627;48.838;2.402;2022-09-27T09:58:45;18.03;69.81
65854;DHT22;52627;48.838;2.402;2022-09-27T10:03:47;18.76;68.49
65854;DHT22;52627;48.838;2.402;2022-09-27T10:06:17;18.77;68.39
65854;DHT22;52627;48.838;2.402;2022-09-27T10:08:45;18.74;67.63
65854;DHT22;52627;48.838;2.402;2022-09-27T10:11:16;18.64;67.22
65854;DHT22;52627;48.838;2.402;2022-09-27T10:14:08;18.48;66.61
65854;DHT22;52627;48.838;2.402;2022-09-27T10:16:40;18.37;66.10
65854;DHT22;52627;48.838;2.402;2022-09-27T10:19:14;18.39;65.53
65854;DHT22;52627;48.838;2.402;2022-09-27T10:21:48;18.52;65.03
65854;DHT22;52627;48.838;2.402;2022-09-27T10:24:17;18.61;64.69
65854;DHT22;52627;48.838;2.402;2022-09-27T10:26:47;18.72;64.27
65854;DHT22;52627;48.838;2.402;2022-09-27T10:29:33;18.78;63.91
65854;DHT22;52627;48.838;2.402;2022-09-27T10:32:04;18.79;63.57
65854;DHT22;52627;48.838;2.402;2022-09-27T10:34:49;18.82;63.33
65854;DHT22;52627;48.838;2.402;2022-09-27T10:37:19;18.79;63.07
65854;DHT22;52627;48.838;2.402;2022-09-27T10:39:49;18.65;62.49
65854;DHT22;52627;48.838;2.402;2022-09-27T10:47:58;17.97;62.52
65854;DHT22;52627;48.838;2.402;2022-09-27T10:50:28;17.80;62.52
65854;DHT22;52627;48.838;2.402;2022-09-27T10:53:19;17.55;62.66
65854;DHT22;52627;48.838;2.402;2022-09-27T10:55:49;17.39;63.09
65854;DHT22;52627;48.838;2.402;2022-09-27T10:58:19;17.22;63.23
65854;DHT22;52627;48.838;2.402;2022-09-27T11:00:58;17.06;63.59
65854;DHT22;52627;48.838;2.402;2022-09-27T11:03:30;16.86;64.05
65854;DHT22;52627;48.838;2.402;2022-09-27T11:06:17;16.69;64.41
65854;DHT22;52627;48.838;2.402;2022-09-27T11:08:51;16.57;65.09
65854;DHT22;52627;48.838;2.402;2022-09-27T11:11:25;16.50;65.44
65854;DHT22;52627;48.838;2.402;2022-09-27T11:14:01;16.41;65.53
65854;DHT22;52627;48.838;2.402;2022-09-27T11:17:07;16.33;65.76
65854;DHT22;52627;48.838;2.402;2022-09-27T11:28:44;16.14;66.73
65854;DHT22;52627;48.838;2.402;2022-09-27T11:31:34;16.08;66.67
65854;DHT22;52627;48.838;2.402;2022-09-27T11:46:15;15.76;67.45
65854;DHT22;52627;48.838;2.402;2022-09-27T11:49:17;15.60;67.89
65854;DHT22;52627;48.838;2.402;2022-09-27T11:54:52;15.58;68.10
65854;DHT22;52627;48.838;2.402;2022-09-27T11:57:42;15.70;68.22
65854;DHT22;52627;48.838;2.402;2022-09-27T12:00:17;15.74;68.26
65854;DHT22;52627;48.838;2.402;2022-09-27T12:05:55;16.06;68.32
65854;DHT22;52627;48.838;2.402;2022-09-27T12:11:37;16.64;68.07
65854;DHT22;52627;48.838;2.402;2022-09-27T12:14:22;16.92;67.95
65854;DHT22;52627;48.838;2.402;2022-09-27T12:16:57;17.13;67.49
65854;DHT22;52627;48.838;2.402;2022-09-27T12:19:26;17.31;67.59
65854;DHT22;52627;48.838;2.402;2022-09-27T12:22:00;17.40;67.35
65854;DHT22;52627;48.838;2.402;2022-09-27T12:24:31;17.37;67.11
65854;DHT22;52627;48.838;2.402;2022-09-27T12:27:01;17.28;66.95
65854;DHT22;52627;48.838;2.402;2022-09-27T12:29:37;17.27;67.08
65854;DHT22;52627;48.838;2.402;2022-09-27T12:34:50;17.26;66.79
65854;DHT22;52627;48.838;2.402;2022-09-27T12:37:29;17.24;66.87
65854;DHT22;52627;48.838;2.402;2022-09-27T12:42:50;17.20;66.23
65854;DHT22;52627;48.838;2.402;2022-09-27T12:45:26;17.15;66.21
65854;DHT22;52627;48.838;2.402;2022-09-27T12:48:05;17.10;66.23
65854;DHT22;52627;48.838;2.402;2022-09-27T12:51:04;17.02;66.15
65854;DHT22;52627;48.838;2.402;2022-09-27T13:02:25;16.53;66.40
65854;DHT22;52627;48.838;2.402;2022-09-27T13:09:01;16.59;66.41
65854;DHT22;52627;48.838;2.402;2022-09-27T13:11:54;16.57;66.29
65854;DHT22;52627;48.838;2.402;2022-09-27T13:20:36;16.58;66.64
65854;DHT22;52627;48.838;2.402;2022-09-27T13:23:02;16.57;66.63
65854;DHT22;52627;48.838;2.402;2022-09-27T13:25:54;16.59;66.64
65854;DHT22;52627;48.838;2.402;2022-09-27T13:31:05;16.60;66.58
65854;DHT22;52627;48.838;2.402;2022-09-27T13:36:20;16.59;66.74
65854;DHT22;52627;48.838;2.402;2022-09-27T13:46:47;16.47;67.25
65854;DHT22;52627;48.838;2.402;2022-09-27T13:52:54;16.44;67.22
65854;DHT22;52627;48.838;2.402;2022-09-27T13:55:04;16.38;67.28
65854;DHT22;52627;48.838;2.402;2022-09-27T13:58:04;16.31;67.38
65854;DHT22;52627;48.838;2.402;2022-09-27T14:00:50;16.25;67.70
65854;DHT22;52627;48.838;2.402;2022-09-27T14:03:23;16.19;67.80
65854;DHT22;52627;48.838;2.402;2022-09-27T14:06:16;16.18;68.12
65854;DHT22;52627;48.838;2.402;2022-09-27T14:09:01;16.21;68.22
65854;DHT22;52627;48.838;2.402;2022-09-27T14:11:39;16.28;68.42
65854;DHT22;52627;48.838;2.402;2022-09-27T14:14:13;16.35;68.31
65854;DHT22;52627;48.838;2.402;2022-09-27T14:16:44;16.40;68.16
65854;DHT22;52627;48.838;2.402;2022-09-27T14:19:23;16.44;68.30
65854;DHT22;52627;48.838;2.402;2022-09-27T14:21:52;16.48;68.23
65854;DHT22;52627;48.838;2.402;2022-09-27T14:24:27;16.47;68.04
65854;DHT22;52627;48.838;2.402;2022-09-27T14:32:28;16.47;67.93
65854;DHT22;52627;48.838;2.402;2022-09-27T14:35:13;16.45;67.97
65854;DHT22;52627;48.838;2.402;2022-09-27T14:38:05;16.41;68.02
65854;DHT22;52627;48.838;2.402;2022-09-27T14:40:59;16.32;67.77
65854;DHT22;52627;48.838;2.402;2022-09-27T14:43:29;16.21;67.89
65854;DHT22;52627;48.838;2.402;2022-09-27T14:46:00;16.13;67.93
65854;DHT22;52627;48.838;2.402;2022-09-27T14:48:34;16.03;68.17
65854;DHT22;52627;48.838;2.402;2022-09-27T14:53:42;15.91;68.72
65854;DHT22;52627;48.838;2.402;2022-09-27T14:56:20;15.85;69.00
65854;DHT22;52627;48.838;2.402;2022-09-27T14:58:52;15.76;69.65
65854;DHT22;52627;48.838;2.402;2022-09-27T15:01:28;15.59;71.69
65854;DHT22;52627;48.838;2.402;2022-09-27T15:04:01;15.35;72.45
65854;DHT22;52627;48.838;2.402;2022-09-27T15:06:35;15.09;72.77
65854;DHT22;52627;48.838;2.402;2022-09-27T15:09:05;14.93;72.86
65854;DHT22;52627;48.838;2.402;2022-09-27T15:11:37;14.82;73.14
65854;DHT22;52627;48.838;2.402;2022-09-27T15:14:10;14.77;73.39
65854;DHT22;52627;48.838;2.402;2022-09-27T15:16:40;14.74;73.68
65854;DHT22;52627;48.838;2.402;2022-09-27T15:19:27;14.74;73.87
65854;DHT22;52627;48.838;2.402;2022-09-27T15:22:07;14.71;73.94
65854;DHT22;52627;48.838;2.402;2022-09-27T15:25:02;14.71;74.27
65854;DHT22;52627;48.838;2.402;2022-09-27T15:27:49;14.70;74.52
65854;DHT22;52627;48.838;2.402;2022-09-27T15:30:24;14.71;74.71
65854;DHT22;52627;48.838;2.402;2022-09-27T15:32:58;14.75;74.79
65854;DHT22;52627;48.838;2.402;2022-09-27T15:35:28;14.79;74.86
65854;DHT22;52627;48.838;2.402;2022-09-27T15:41:03;14.87;75.17
65854;DHT22;52627;48.838;2.402;2022-09-27T15:46:23;14.95;75.48
65854;DHT22;52627;48.838;2.402;2022-09-27T15:49:13;14.98;75.55
65854;DHT22;52627;48.838;2.402;2022-09-27T15:51:53;15.01;75.69
65854;DHT22;52627;48.838;2.402;2022-09-27T15:54:23;15.02;75.69
65854;DHT22;52627;48.838;2.402;2022-09-27T15:56:56;15.02;75.60
65854;DHT22;52627;48.838;2.402;2022-09-27T15:59:33;15.04;75.62
65854;DHT22;52627;48.838;2.402;2022-09-27T16:02:03;15.07;75.68
65854;DHT22;52627;48.838;2.402;2022-09-27T16:04:42;15.10;75.70
65854;DHT22;52627;48.838;2.402;2022-09-27T16:07:09;15.14;75.75
65854;DHT22;52627;48.838;2.402;2022-09-27T16:09:39;15.16;75.84
65854;DHT22;52627;48.838;2.402;2022-09-27T16:12:07;15.19;75.93
65854;DHT22;52627;48.838;2.402;2022-09-27T16:14:35;15.21;75.99
65854;DHT22;52627;48.838;2.402;2022-09-27T16:17:02;15.20;76.00
65854;DHT22;52627;48.838;2.402;2022-09-27T16:19:29;15.18;76.00
65854;DHT22;52627;48.838;2.402;2022-09-27T16:21:57;15.18;76.07
65854;DHT22;52627;48.838;2.402;2022-09-27T16:24:29;15.18;76.09
65854;DHT22;52627;48.838;2.402;2022-09-27T16:26:57;15.17;76.21
65854;DHT22;52627;48.838;2.402;2022-09-27T16:29:25;15.20;76.27
65854;DHT22;52627;48.838;2.402;2022-09-27T16:31:52;15.22;76.31
65854;DHT22;52627;48.838;2.402;2022-09-27T16:34:20;15.23;76.42
65854;DHT22;52627;48.838;2.402;2022-09-27T16:36:48;15.24;76.43
65854;DHT22;52627;48.838;2.402;2022-09-27T16:39:16;15.26;76.41
65854;DHT22;52627;48.838;2.402;2022-09-27T16:41:43;15.26;76.30
65854;DHT22;52627;48.838;2.402;2022-09-27T16:44:12;15.27;76.23
65854;DHT22;52627;48.838;2.402;2022-09-27T16:46:43;15.26;75.99
65854;DHT22;52627;48.838;2.402;2022-09-27T16:49:12;15.24;75.71
65854;DHT22;52627;48.838;2.402;2022-09-27T16:51:58;15.23;75.50
65854;DHT22;52627;48.838;2.402;2022-09-27T16:54:26;15.21;75.32
65854;DHT22;52627;48.838;2.402;2022-09-27T16:56:58;15.19;75.17
65854;DHT22;52627;48.838;2.402;2022-09-27T16:59:26;15.19;75.05
65854;DHT22;52627;48.838;2.402;2022-09-27T17:01:53;15.18;74.84
65854;DHT22;52627;48.838;2.402;2022-09-27T17:04:25;15.17;74.74
65854;DHT22;52627;48.838;2.402;2022-09-27T17:06:54;15.14;74.41
65854;DHT22;52627;48.838;2.402;2022-09-27T17:09:23;15.12;74.23
65854;DHT22;52627;48.838;2.402;2022-09-27T17:11:50;15.10;74.24
65854;DHT22;52627;48.838;2.402;2022-09-27T17:14:18;15.08;74.06
65854;DHT22;52627;48.838;2.402;2022-09-27T17:16:46;15.06;73.96
65854;DHT22;52627;48.838;2.402;2022-09-27T17:19:15;15.03;73.74
65854;DHT22;52627;48.838;2.402;2022-09-27T17:21:44;15.02;73.55
65854;DHT22;52627;48.838;2.402;2022-09-27T17:24:12;14.99;73.51
65854;DHT22;52627;48.838;2.402;2022-09-27T17:26:40;14.96;73.39
65854;DHT22;52627;48.838;2.402;2022-09-27T17:29:10;14.95;73.26
65854;DHT22;52627;48.838;2.402;2022-09-27T17:31:39;14.94;73.21
65854;DHT22;52627;48.838;2.402;2022-09-27T17:34:08;14.91;73.16
65854;DHT22;52627;48.838;2.402;2022-09-27T17:36:42;14.90;73.12
65854;DHT22;52627;48.838;2.402;2022-09-27T17:39:14;14.88;73.05
65854;DHT22;52627;48.838;2.402;2022-09-27T17:41:44;14.87;73.00
65854;DHT22;52627;48.838;2.402;2022-09-27T17:44:12;14.85;72.96
65854;DHT22;52627;48.838;2.402;2022-09-27T17:46:41;14.83;72.91
65854;DHT22;52627;48.838;2.402;2022-09-27T17:49:10;14.83;72.87
65854;DHT22;52627;48.838;2.402;2022-09-27T17:51:56;14.81;72.82
65854;DHT22;52627;48.838;2.402;2022-09-27T17:54:24;14.81;72.86
65854;DHT22;52627;48.838;2.402;2022-09-27T17:56:54;14.81;72.89
65854;DHT22;52627;48.838;2.402;2022-09-27T17:59:22;14.80;72.89
65854;DHT22;52627;48.838;2.402;2022-09-27T18:01:50;14.80;72.90
65854;DHT22;52627;48.838;2.402;2022-09-27T18:04:17;14.79;72.87
65854;DHT22;52627;48.838;2.402;2022-09-27T18:06:46;14.79;72.90
65854;DHT22;52627;48.838;2.402;2022-09-27T18:09:14;14.78;72.84
65854;DHT22;52627;48.838;2.402;2022-09-27T18:11:42;14.77;72.80
65854;DHT22;52627;48.838;2.402;2022-09-27T18:14:11;14.75;72.81
65854;DHT22;52627;48.838;2.402;2022-09-27T18:16:40;14.74;72.82
65854;DHT22;52627;48.838;2.402;2022-09-27T18:19:10;14.74;72.81
65854;DHT22;52627;48.838;2.402;2022-09-27T18:21:40;14.72;72.81
65854;DHT22;52627;48.838;2.402;2022-09-27T18:24:09;14.72;72.83
65854;DHT22;52627;48.838;2.402;2022-09-27T18:26:37;14.71;72.89
65854;DHT22;52627;48.838;2.402;2022-09-27T18:29:06;14.71;72.90
65854;DHT22;52627;48.838;2.402;2022-09-27T18:31:40;14.70;72.94
65854;DHT22;52627;48.838;2.402;2022-09-27T18:34:26;14.70;72.92
65854;DHT22;52627;48.838;2.402;2022-09-27T18:36:53;14.69;73.00
65854;DHT22;52627;48.838;2.402;2022-09-27T18:39:20;14.68;73.02
65854;DHT22;52627;48.838;2.402;2022-09-27T18:41:48;14.67;73.02